Aeroporto :
LOGIN :

Iscrizione | Disclaimer

   EN    FR    IT 

 










Sommario :    VFR   VFR Marginale   IFR   IFR Intensivo   IFR Molto Intensivo
Visibilità : 
Base nubi : 
>= 8 km
>= 3000ft
5 / 8 km
1000 / 3000 ft
1500m / 5 km
500 / 1000 ft
800 / 1500m
200 / 500 ft
< 800m
< 200 ft
Simboli :   Temporali  Nebbia  Neve Forte  Precipitazioni Forti  Vento > 20 kt
SIGMETs :   Varie  Temporali  Ghiacco  Turbolenza  Onda orograficha  Ceneri Vulcaniche







- Altitudine del aeroporto : 308 ft
- Codice IATA : MHG


EDFM - Mannheim-City

ULTIMO METAR :
  • 221650Z 35010KT 9999 BKN025 OVC033 13/08 Q1031

METARs OBSOLETI :
  • 221620Z 35010KT 320V020 9999 SCT030 BKN045 OVC056 13/08 Q1030
  • 221550Z 36009KT 9999 BKN033 BKN048 14/08 Q1029
  • 221520Z 36010KT 320V020 9999 BKN035 OVC042 14/07 Q1029
  • 221450Z 01010KT 330V030 9999 BKN045 OVC065 15/06 Q1029
  • 221420Z 01008KT 340V040 9999 BKN049 OVC069 16/05 Q1028

TAF TAF EDFM
Valido dal 22 a 15 ore il 22 a 21 ore UTC


221400Z 2215/2221 35008KT 9999 SCT040
Nessun NOTAM noto per questo aeroporto.



MetMap, La meteo Aeronautica in un colpo d'occhio ! - Copyright ORBIFLY Dicembre 2007 - Disclaimer

ORBIFLY MET'MAP TEAM :

Programmazione e sviluppo : Alexandra Zaïnal
Concezione e sviluppo : Baudouin d'Aumeries
Co-Programmazione e sviluppo : Marc-Olivier Méhu
Supporto tecnico e logistico : Manuel Goepfert
Aiuto per la traduzione : Arnaldo La Scala

Contatto : metmap@orbifly.com




FONTI E CREDITI :

   NOAA